Time;durP1;ratioP1;P1;durP2;ratioP2;P2;SDS_P1;SDS_P2;PMS_P1;PMS_P2;Temp;Humidity;BMP_temperature;BMP_pressure;BME280_temperature;BME280_humidity;BME280_pressure;Samples;Min_cycle;Max_cycle;Signal;HPM_P1;HPM_P2
2023/08/28 00:02:17;;;;;;;6.20;2.08;;;13.10;99.90;;;;;;5053150;28;20323;-41
2023/08/28 00:04:43;;;;;;;3.30;1.70;;;13.00;99.90;;;;;;5054913;28;20817;-40
2023/08/28 00:07:09;;;;;;;3.35;2.17;;;13.00;99.90;;;;;;5054734;28;20036;-40
2023/08/28 00:09:34;;;;;;;3.50;2.25;;;13.00;99.90;;;;;;5053984;28;20056;-40
2023/08/28 00:12:01;;;;;;;5.32;2.30;;;13.10;99.90;;;;;;5070217;28;20075;-40
2023/08/28 00:14:27;;;;;;;4.35;2.00;;;13.00;99.90;;;;;;5074513;28;20105;-40
2023/08/28 00:16:53;;;;;;;4.13;2.17;;;13.00;99.90;;;;;;5075230;28;20465;-40
2023/08/28 00:19:19;;;;;;;3.40;2.15;;;13.00;99.90;;;;;;5074754;28;20114;-40
2023/08/28 00:21:44;;;;;;;4.78;2.13;;;13.10;99.90;;;;;;5071173;28;20060;-40
2023/08/28 00:24:10;;;;;;;3.70;2.22;;;13.10;99.90;;;;;;5044561;28;20690;-40
2023/08/28 00:26:36;;;;;;;6.45;2.03;;;13.00;99.90;;;;;;5053152;28;20044;-40
2023/08/28 00:29:01;;;;;;;4.78;2.35;;;13.00;99.90;;;;;;5055155;28;20109;-41
2023/08/28 00:31:27;;;;;;;5.07;2.05;;;13.00;99.90;;;;;;5054757;28;20143;-40
2023/08/28 00:33:53;;;;;;;5.80;2.17;;;12.90;99.90;;;;;;5053221;28;20441;-40
2023/08/28 00:36:19;;;;;;;5.05;1.80;;;12.90;99.90;;;;;;5054776;28;20434;-40
2023/08/28 00:38:44;;;;;;;4.60;2.33;;;12.90;99.90;;;;;;5054492;28;20382;-40
2023/08/28 00:41:11;;;;;;;3.65;1.73;;;12.90;99.90;;;;;;5053682;28;20074;-40
2023/08/28 00:43:37;;;;;;;4.97;1.77;;;13.00;99.90;;;;;;5054042;28;20466;-40
2023/08/28 00:46:03;;;;;;;4.20;2.05;;;13.00;99.90;;;;;;5048752;28;20152;-41
2023/08/28 00:48:29;;;;;;;4.50;2.03;;;13.10;99.90;;;;;;5048783;28;20127;-40
2023/08/28 00:50:56;;;;;;;6.25;2.65;;;13.10;99.90;;;;;;5077571;28;20066;-40
2023/08/28 00:53:23;;;;;;;4.78;2.33;;;13.20;99.90;;;;;;5048090;28;20045;-40
2023/08/28 00:55:49;;;;;;;7.28;2.53;;;13.20;99.90;;;;;;5071428;28;20055;-40
2023/08/28 00:58:16;;;;;;;6.53;2.83;;;13.20;99.90;;;;;;5065746;28;20047;-40
2023/08/28 01:00:41;;;;;;;6.80;3.33;;;13.20;99.90;;;;;;5078559;28;20044;-40
2023/08/28 01:03:07;;;;;;;3.55;2.83;;;13.10;99.90;;;;;;5078197;28;20078;-40
2023/08/28 01:05:39;;;;;;;7.43;3.35;;;13.20;99.90;;;;;;5079076;28;20556;-40
2023/08/28 01:08:30;;;;;;;4.60;2.72;;;13.20;99.90;;;;;;5077703;28;20048;-41
2023/08/28 01:11:10;;;;;;;5.88;3.42;;;13.10;99.90;;;;;;5078018;28;20040;-40
2023/08/28 01:13:46;;;;;;;5.97;3.17;;;13.00;99.90;;;;;;5073641;28;20056;-40
2023/08/28 01:16:13;;;;;;;5.78;3.53;;;13.00;99.90;;;;;;5078156;28;20052;-40
2023/08/28 01:18:39;;;;;;;5.47;3.38;;;13.00;99.90;;;;;;5076859;28;20036;-40
2023/08/28 01:21:05;;;;;;;7.70;3.05;;;12.90;99.90;;;;;;5067621;28;20358;-40
2023/08/28 01:23:39;;;;;;;6.28;3.45;;;12.90;99.90;;;;;;5051343;28;20131;-40
2023/08/28 01:26:04;;;;;;;;;;;12.90;99.90;;;;;;5079700;28;20527;-42
2023/08/28 01:28:31;;;;;;;5.70;2.85;;;12.90;99.90;;;;;;5077278;28;19920;-40
2023/08/28 01:30:56;;;;;;;6.15;3.22;;;12.80;99.90;;;;;;5077649;28;20406;-40
2023/08/28 01:33:22;;;;;;;3.97;2.55;;;12.80;99.90;;;;;;5077019;28;20564;-40
2023/08/28 01:36:11;;;;;;;6.30;2.58;;;12.80;99.90;;;;;;5078068;28;20048;-40
2023/08/28 01:38:56;;;;;;;6.00;2.72;;;12.80;99.90;;;;;;5067851;28;20056;-42
2023/08/28 01:41:24;;;;;;;3.50;2.35;;;12.80;99.90;;;;;;5057290;28;20056;-40
2023/08/28 01:43:54;;;;;;;4.40;2.70;;;12.70;99.90;;;;;;5068637;28;20046;-40
2023/08/28 01:46:20;;;;;;;7.13;2.70;;;12.80;99.90;;;;;;5053659;28;20040;-40
2023/08/28 01:48:53;;;;;;;5.47;3.00;;;12.70;99.90;;;;;;5068670;28;20083;-40
2023/08/28 01:51:23;;;;;;;6.80;2.75;;;12.60;99.90;;;;;;5074013;28;20048;-40
2023/08/28 01:53:49;;;;;;;6.50;2.60;;;12.60;99.90;;;;;;5063451;28;20055;-40
2023/08/28 01:56:19;;;;;;;5.50;2.58;;;12.50;99.90;;;;;;5077804;28;20076;-40
2023/08/28 01:58:52;;;;;;;5.40;2.40;;;12.50;99.90;;;;;;5076996;28;20199;-40
2023/08/28 02:01:18;;;;;;;4.15;2.40;;;12.50;99.90;;;;;;5063268;28;20156;-40
2023/08/28 02:03:44;;;;;;;6.10;2.50;;;12.40;99.90;;;;;;5055117;28;20140;-40
2023/08/28 02:06:09;;;;;;;3.65;2.58;;;12.40;99.90;;;;;;5054514;28;20045;-42
2023/08/28 02:08:36;;;;;;;5.20;2.20;;;12.30;99.90;;;;;;5055808;28;20033;-40
2023/08/28 02:11:02;;;;;;;3.75;2.67;;;12.20;99.90;;;;;;5057538;28;20102;-40
2023/08/28 02:13:27;;;;;;;4.45;2.53;;;12.20;99.90;;;;;;5070746;28;20203;-42
2023/08/28 02:15:53;;;;;;;5.32;3.42;;;12.20;99.90;;;;;;5077148;28;20051;-40
2023/08/28 02:18:19;;;;;;;6.20;3.05;;;12.10;99.90;;;;;;5076433;28;20121;-40
2023/08/28 02:20:45;;;;;;;6.75;2.70;;;12.00;99.90;;;;;;5077431;28;20051;-40
2023/08/28 02:23:11;;;;;;;4.82;2.70;;;12.00;99.90;;;;;;5051693;28;20048;-39
2023/08/28 02:25:48;;;;;;;4.88;3.00;;;12.00;99.90;;;;;;5056553;28;20376;-40
2023/08/28 02:28:14;;;;;;;3.63;2.55;;;11.90;99.90;;;;;;5055558;28;20043;-40
2023/08/28 02:30:39;;;;;;;6.10;3.88;;;11.90;99.90;;;;;;5056781;28;20588;-40
2023/08/28 02:33:05;;;;;;;5.88;3.17;;;11.90;99.90;;;;;;5055511;28;20048;-40
2023/08/28 02:35:31;;;;;;;4.78;2.72;;;11.90;99.90;;;;;;5066637;28;20076;-40
2023/08/28 02:37:57;;;;;;;5.90;3.80;;;12.00;99.90;;;;;;5071972;28;20498;-40
2023/08/28 02:40:24;;;;;;;4.75;3.30;;;11.90;99.90;;;;;;5038688;28;20048;-40
2023/08/28 02:42:54;;;;;;;5.07;2.97;;;11.90;99.90;;;;;;5073376;28;20040;-41
2023/08/28 02:45:20;;;;;;;5.53;3.05;;;11.90;99.90;;;;;;5064156;28;20080;-40
2023/08/28 02:47:46;;;;;;;3.40;2.97;;;11.80;99.90;;;;;;5084803;28;20140;-39
2023/08/28 02:50:11;;;;;;;4.22;3.17;;;11.90;99.90;;;;;;5056428;28;20204;-40
2023/08/28 02:52:37;;;;;;;3.33;2.65;;;11.80;99.90;;;;;;5045694;28;20502;-40
2023/08/28 02:55:03;;;;;;;3.78;2.67;;;11.80;99.90;;;;;;5055132;28;20093;-40
2023/08/28 02:57:28;;;;;;;4.68;2.80;;;11.80;99.90;;;;;;5055692;28;20153;-40
2023/08/28 02:59:54;;;;;;;4.25;2.42;;;11.80;99.90;;;;;;5054930;28;20049;-40
2023/08/28 03:02:20;;;;;;;4.90;2.60;;;11.80;99.90;;;;;;5055195;28;20059;-40
2023/08/28 03:04:45;;;;;;;4.07;3.00;;;11.80;99.90;;;;;;5055059;28;20410;-40
2023/08/28 03:07:11;;;;;;;2.65;2.17;;;11.80;99.90;;;;;;5055115;28;20204;-40
2023/08/28 03:09:38;;;;;;;4.30;2.72;;;11.80;99.90;;;;;;5055448;28;20044;-41
2023/08/28 03:12:04;;;;;;;3.65;2.35;;;11.80;99.90;;;;;;5056636;28;20117;-39
2023/08/28 03:14:29;;;;;;;6.60;2.58;;;11.80;99.90;;;;;;5075876;28;20040;-40
2023/08/28 03:16:55;;;;;;;6.47;2.88;;;11.80;99.90;;;;;;5074708;28;20052;-40
2023/08/28 03:19:21;;;;;;;4.63;2.35;;;11.70;99.90;;;;;;5075817;28;20051;-40
2023/08/28 03:21:46;;;;;;;4.90;2.17;;;11.70;99.90;;;;;;5072824;28;20067;-40
2023/08/28 03:24:12;;;;;;;4.18;2.50;;;11.80;99.90;;;;;;5045208;28;20059;-40
2023/08/28 03:26:37;;;;;;;3.28;2.30;;;11.80;99.90;;;;;;5055179;28;20191;-40
2023/08/28 03:29:04;;;;;;;4.57;2.30;;;11.80;99.90;;;;;;5054844;28;20434;-41
2023/08/28 03:31:30;;;;;;;6.43;2.22;;;11.70;99.90;;;;;;5054851;28;20506;-40
2023/08/28 03:33:56;;;;;;;2.40;2.20;;;11.70;99.90;;;;;;5054695;28;20123;-40
2023/08/28 03:36:21;;;;;;;5.50;2.30;;;11.70;99.90;;;;;;5053501;28;20484;-40
2023/08/28 03:38:47;;;;;;;3.78;2.30;;;11.70;99.90;;;;;;5053334;28;20475;-40
2023/08/28 03:41:13;;;;;;;2.85;2.30;;;11.70;99.90;;;;;;5051296;28;20090;-40
2023/08/28 03:43:38;;;;;;;4.10;2.40;;;11.70;99.90;;;;;;5054147;28;20459;-40
2023/08/28 03:46:04;;;;;;;4.50;2.67;;;11.60;99.90;;;;;;5047768;28;20049;-40
2023/08/28 03:48:30;;;;;;;4.47;2.58;;;11.60;99.90;;;;;;5054681;28;20040;-42
2023/08/28 03:50:55;;;;;;;4.75;2.25;;;11.50;99.90;;;;;;5055405;28;20080;-40
2023/08/28 03:53:21;;;;;;;4.72;2.35;;;11.50;99.90;;;;;;5044968;28;20137;-40
2023/08/28 03:55:47;;;;;;;4.13;2.63;;;11.40;99.90;;;;;;5069040;28;20509;-40
2023/08/28 03:58:12;;;;;;;4.00;2.75;;;11.40;99.90;;;;;;5063997;28;20181;-40
2023/08/28 04:00:39;;;;;;;3.85;3.20;;;11.30;99.90;;;;;;5071781;28;20033;-40
2023/08/28 04:03:05;;;;;;;3.88;2.75;;;11.30;99.90;;;;;;5043404;28;20439;-40
2023/08/28 04:05:35;;;;;;;6.25;2.90;;;11.20;99.90;;;;;;5053623;28;20126;-40
2023/08/28 04:08:01;;;;;;;4.22;2.80;;;11.20;99.90;;;;;;5054530;28;20319;-40
2023/08/28 04:10:27;;;;;;;5.32;2.90;;;11.20;99.90;;;;;;5054846;28;20403;-40
2023/08/28 04:12:52;;;;;;;5.15;3.30;;;11.20;99.90;;;;;;5054231;28;20044;-40
2023/08/28 04:15:19;;;;;;;4.50;2.83;;;11.20;99.90;;;;;;5072178;28;20036;-40
2023/08/28 04:17:45;;;;;;;4.93;2.83;;;11.20;99.90;;;;;;5073603;28;20478;-40
2023/08/28 04:20:13;;;;;;;3.92;3.35;;;11.20;99.90;;;;;;5073004;28;20097;-40
2023/08/28 04:22:43;;;;;;;3.20;2.90;;;11.20;99.90;;;;;;5049788;28;20477;-40
2023/08/28 04:25:13;;;;;;;3.88;3.53;;;11.20;99.90;;;;;;5055830;28;20132;-40
2023/08/28 04:27:40;;;;;;;4.03;3.63;;;11.20;99.90;;;;;;5057038;28;20076;-40
2023/08/28 04:30:06;;;;;;;2.97;2.67;;;11.20;99.90;;;;;;5058529;28;20087;-40
2023/08/28 04:32:32;;;;;;;4.70;2.80;;;11.20;99.90;;;;;;5057834;28;20052;-40
2023/08/28 04:34:58;;;;;;;5.38;3.67;;;11.20;99.90;;;;;;5057218;28;20049;-39
2023/08/28 04:37:25;;;;;;;4.35;3.92;;;11.20;99.90;;;;;;5070217;28;20044;-40
2023/08/28 04:39:50;;;;;;;6.00;3.30;;;11.20;99.90;;;;;;5078415;28;20128;-39
2023/08/28 04:42:16;;;;;;;6.07;3.40;;;11.20;99.90;;;;;;5078482;28;20449;-39
2023/08/28 04:44:41;;;;;;;3.28;2.97;;;11.20;99.90;;;;;;5072428;28;20596;-40
2023/08/28 04:47:07;;;;;;;3.17;2.88;;;11.20;99.90;;;;;;5052689;28;20580;-39
2023/08/28 04:49:33;;;;;;;4.97;2.90;;;11.20;99.90;;;;;;5076092;28;20092;-39
2023/08/28 04:51:59;;;;;;;3.65;2.88;;;11.20;99.90;;;;;;5063871;28;20045;-40
2023/08/28 04:54:24;;;;;;;4.53;3.20;;;11.10;99.90;;;;;;5055533;28;20088;-39
2023/08/28 04:56:50;;;;;;;3.45;3.15;;;11.20;99.90;;;;;;5069120;28;20105;-40
2023/08/28 04:59:16;;;;;;;3.67;3.20;;;11.20;99.90;;;;;;5078343;28;20079;-40
2023/08/28 05:01:41;;;;;;;6.55;4.20;;;11.20;99.90;;;;;;5078225;28;20410;-40
2023/08/28 05:04:07;;;;;;;4.75;4.07;;;11.20;99.90;;;;;;5078484;28;20391;-40
2023/08/28 05:06:33;;;;;;;3.90;3.60;;;11.30;99.90;;;;;;5078449;28;20095;-39
2023/08/28 05:08:59;;;;;;;6.03;4.38;;;11.40;99.90;;;;;;5059134;28;20452;-39
2023/08/28 05:11:25;;;;;;;5.07;4.20;;;11.40;99.90;;;;;;5078812;28;20050;-40
2023/08/28 05:13:52;;;;;;;5.10;4.68;;;11.50;99.90;;;;;;5068248;28;20044;-39
2023/08/28 05:16:17;;;;;;;5.53;4.70;;;11.60;99.90;;;;;;5077194;28;20425;-40
2023/08/28 05:18:43;;;;;;;7.07;4.75;;;11.60;99.90;;;;;;5077866;28;20036;-39
2023/08/28 05:21:09;;;;;;;5.20;4.72;;;11.70;99.90;;;;;;5078184;28;20443;-40
2023/08/28 05:23:34;;;;;;;5.75;5.25;;;11.90;99.90;;;;;;5053682;28;20057;-40
2023/08/28 05:26:00;;;;;;;6.63;5.22;;;12.00;99.90;;;;;;5066219;28;20045;-40
2023/08/28 05:28:25;;;;;;;5.40;4.90;;;12.20;99.90;;;;;;5075537;28;20040;-40
2023/08/28 05:30:51;;;;;;;6.80;5.38;;;12.50;99.90;;;;;;5066024;28;20048;-40
2023/08/28 05:33:17;;;;;;;6.18;4.70;;;12.90;99.90;;;;;;5072886;28;20040;-40
2023/08/28 05:35:43;;;;;;;7.15;5.40;;;13.50;99.90;;;;;;5077504;28;20044;-41
2023/08/28 05:38:10;;;;;;;4.63;3.90;;;14.60;99.90;;;;;;5063449;28;20460;-41
2023/08/28 05:40:37;;;;;;;6.05;3.90;;;15.80;99.90;;;;;;5073311;28;20090;-41
2023/08/28 05:43:03;;;;;;;5.30;3.72;;;16.80;99.90;;;;;;5077502;28;20390;-41
2023/08/28 05:45:28;;;;;;;4.78;3.25;;;17.90;99.90;;;;;;5082695;28;20045;-42
2023/08/28 05:47:54;;;;;;;3.35;2.95;;;18.90;99.90;;;;;;5053511;28;20043;-41
2023/08/28 05:50:20;;;;;;;4.00;3.60;;;19.40;99.90;;;;;;5055733;28;20044;-42
2023/08/28 05:52:46;;;;;;;4.95;3.15;;;19.40;99.90;;;;;;5036455;28;20089;-41
2023/08/28 05:55:11;;;;;;;4.95;3.15;;;19.70;99.90;;;;;;5055570;28;20045;-41
2023/08/28 05:57:37;;;;;;;3.83;3.03;;;20.30;99.90;;;;;;5053398;28;20048;-41
2023/08/28 06:00:04;;;;;;;3.20;2.90;;;20.90;99.90;;;;;;5055985;28;20040;-41
2023/08/28 06:02:30;;;;;;;4.07;2.63;;;21.30;99.90;;;;;;5052661;28;20053;-42
2023/08/28 06:04:56;;;;;;;4.38;2.67;;;21.70;99.90;;;;;;5055387;28;20040;-41
2023/08/28 06:07:21;;;;;;;3.53;2.67;;;22.10;99.90;;;;;;5054037;28;20032;-42
2023/08/28 06:09:47;;;;;;;3.63;2.45;;;22.70;99.90;;;;;;5053078;28;20059;-43
2023/08/28 06:12:13;;;;;;;5.30;2.45;;;23.20;99.90;;;;;;5054556;28;20071;-42
2023/08/28 06:14:39;;;;;;;3.85;2.38;;;23.40;99.90;;;;;;5053843;28;20039;-42
2023/08/28 06:17:05;;;;;;;3.35;2.25;;;23.50;99.90;;;;;;5057147;28;20499;-42
2023/08/28 06:19:30;;;;;;;3.20;2.33;;;24.00;99.90;;;;;;5055169;28;20494;-42
2023/08/28 06:21:56;;;;;;;3.28;2.08;;;24.80;99.90;;;;;;5054205;28;20459;-45
2023/08/28 06:24:22;;;;;;;2.92;2.58;;;25.10;99.90;;;;;;5058816;28;20530;-43
2023/08/28 06:26:47;;;;;;;4.18;2.13;;;25.00;99.20;;;;;;5037460;28;20036;-42
2023/08/28 06:29:13;;;;;;;4.07;2.15;;;25.00;98.80;;;;;;5056202;28;20036;-42
2023/08/28 06:31:39;;;;;;;4.70;2.75;;;25.00;98.60;;;;;;5059166;28;20062;-42
2023/08/28 06:34:04;;;;;;;5.25;2.38;;;24.90;99.20;;;;;;5053014;28;20028;-42
2023/08/28 06:36:30;;;;;;;5.28;2.95;;;25.10;99.50;;;;;;5059775;28;20492;-42
2023/08/28 06:38:56;;;;;;;3.92;2.67;;;25.30;99.00;;;;;;5053773;28;20113;-42
2023/08/28 06:41:22;;;;;;;3.70;2.72;;;25.30;98.90;;;;;;5058673;28;20052;-42
2023/08/28 06:43:49;;;;;;;3.42;2.65;;;25.20;98.80;;;;;;5053322;28;20044;-42
2023/08/28 06:46:15;;;;;;;3.13;2.50;;;25.30;99.30;;;;;;5054480;28;20367;-42
2023/08/28 06:48:43;;;;;;;4.40;2.47;;;25.60;99.90;;;;;;5053934;28;20486;-42
2023/08/28 06:51:10;;;;;;;4.75;2.30;;;25.80;98.40;;;;;;5054959;28;20064;-43
2023/08/28 06:53:36;;;;;;;3.72;2.42;;;26.10;99.20;;;;;;5050620;28;20495;-43
2023/08/28 06:56:02;;;;;;;7.05;2.50;;;26.50;99.50;;;;;;5055302;28;20040;-43
2023/08/28 06:58:27;;;;;;;3.60;2.45;;;26.80;97.50;;;;;;5053803;28;20036;-44
2023/08/28 07:00:53;;;;;;;4.28;2.25;;;27.10;97.20;;;;;;5055238;28;20091;-43
2023/08/28 07:03:18;;;;;;;6.20;2.40;;;27.00;96.10;;;;;;5053115;28;20138;-43
2023/08/28 07:05:44;;;;;;;3.70;2.40;;;27.10;96.40;;;;;;5055701;28;20126;-42
2023/08/28 07:08:10;;;;;;;7.13;2.20;;;27.30;96.50;;;;;;5052540;28;20209;-42
2023/08/28 07:10:35;;;;;;;6.55;2.60;;;27.10;96.70;;;;;;5052981;28;20045;-42
2023/08/28 07:13:01;;;;;;;5.13;2.47;;;27.30;97.10;;;;;;5051919;28;20379;-44
2023/08/28 07:15:29;;;;;;;5.72;1.98;;;27.00;97.50;;;;;;5053408;28;20139;-43
2023/08/28 07:17:55;;;;;;;4.28;2.20;;;26.10;97.80;;;;;;5054049;28;20047;-42
2023/08/28 07:20:23;;;;;;;3.22;1.73;;;25.40;97.90;;;;;;5055278;28;20395;-42
2023/08/28 07:22:54;;;;;;;2.95;2.08;;;24.80;99.60;;;;;;5052252;28;20093;-42
2023/08/28 07:25:22;;;;;;;2.93;1.73;;;24.40;99.90;;;;;;5056693;28;20060;-42
2023/08/28 07:27:49;;;;;;;3.22;1.83;;;24.00;99.90;;;;;;5053327;28;20036;-42
2023/08/28 07:30:14;;;;;;;5.22;1.85;;;23.80;99.90;;;;;;5052962;28;20093;-41
2023/08/28 07:32:40;;;;;;;3.50;1.73;;;23.40;99.90;;;;;;5054052;28;20508;-42
2023/08/28 07:35:07;;;;;;;5.82;1.70;;;23.30;99.90;;;;;;5054031;28;20086;-43
2023/08/28 07:37:36;;;;;;;5.40;1.58;;;23.10;99.90;;;;;;5054020;28;20074;-42
2023/08/28 07:40:06;;;;;;;3.95;1.77;;;23.00;99.90;;;;;;5055005;28;20044;-42
2023/08/28 07:42:36;;;;;;;4.15;1.58;;;22.90;99.90;;;;;;5053184;28;20145;-43
2023/08/28 07:45:02;;;;;;;3.67;1.30;;;22.70;99.90;;;;;;5051749;28;20130;-43
2023/08/28 07:47:28;;;;;;;3.03;1.50;;;22.70;99.90;;;;;;5051218;28;20079;-42
2023/08/28 07:49:54;;;;;;;3.35;1.38;;;22.80;99.90;;;;;;5052744;28;20041;-42
2023/08/28 07:52:23;;;;;;;3.55;1.50;;;22.80;99.90;;;;;;5053609;28;20076;-43
2023/08/28 07:54:48;;;;;;;2.85;1.33;;;22.90;99.90;;;;;;5052378;28;20562;-42
2023/08/28 07:57:14;;;;;;;5.50;1.50;;;22.70;99.90;;;;;;5049777;28;20124;-42
2023/08/28 07:59:40;;;;;;;4.65;1.58;;;22.40;99.90;;;;;;5082030;28;20298;-43
2023/08/28 08:02:07;;;;;;;4.50;1.77;;;22.20;99.90;;;;;;5052158;28;20391;-42
2023/08/28 08:04:33;;;;;;;5.45;2.00;;;22.10;99.90;;;;;;5050772;28;20502;-42
2023/08/28 08:06:58;;;;;;;6.80;1.27;;;22.20;99.90;;;;;;5052875;28;20143;-42
2023/08/28 08:09:24;;;;;;;4.10;1.52;;;22.20;99.90;;;;;;5051743;28;20045;-42
2023/08/28 08:11:51;;;;;;;2.95;1.00;;;22.40;99.90;;;;;;5034653;28;20102;-42
2023/08/28 08:14:17;;;;;;;2.08;0.95;;;22.30;99.90;;;;;;5050970;28;20491;-42
2023/08/28 08:16:42;;;;;;;5.72;1.58;;;22.20;99.90;;;;;;5049179;28;20051;-42
2023/08/28 08:19:08;;;;;;;5.20;1.17;;;22.30;99.90;;;;;;5052374;28;20040;-42
2023/08/28 08:21:34;;;;;;;3.53;1.20;;;22.20;99.90;;;;;;5052348;28;20136;-42
2023/08/28 08:23:59;;;;;;;4.03;1.20;;;21.90;99.90;;;;;;5051808;28;20122;-42
2023/08/28 08:26:25;;;;;;;4.20;1.50;;;21.70;99.90;;;;;;5053763;28;20048;-42
2023/08/28 08:28:51;;;;;;;2.65;1.23;;;21.70;99.90;;;;;;5054065;28;20436;-42
2023/08/28 08:31:17;;;;;;;1.95;1.13;;;21.70;99.90;;;;;;5055327;28;20389;-42
2023/08/28 08:33:43;;;;;;;3.90;1.05;;;21.60;99.90;;;;;;5051338;28;20036;-42
2023/08/28 08:36:13;;;;;;;2.80;1.20;;;21.30;99.90;;;;;;5051756;28;20407;-41
2023/08/28 08:38:39;;;;;;;3.17;1.15;;;21.30;99.90;;;;;;5052241;28;20047;-42
2023/08/28 08:41:07;;;;;;;3.42;1.35;;;21.40;99.90;;;;;;5053047;28;20127;-43
2023/08/28 08:43:34;;;;;;;3.03;0.80;;;21.40;99.90;;;;;;5051554;28;20044;-43
2023/08/28 08:46:06;;;;;;;2.85;1.10;;;21.20;99.90;;;;;;5049474;28;20510;-42
2023/08/28 08:48:36;;;;;;;3.58;1.63;;;21.00;99.90;;;;;;5053689;28;20036;-41
2023/08/28 08:51:07;;;;;;;2.92;1.33;;;20.80;99.90;;;;;;5054219;28;20043;-42
2023/08/28 08:54:10;;;;;;;3.95;1.20;;;20.50;99.90;;;;;;5046858;28;20048;-41
2023/08/28 08:56:40;;;;;;;4.28;1.13;;;20.50;99.90;;;;;;5047933;28;20487;-41
2023/08/28 08:59:06;;;;;;;2.25;1.08;;;20.60;99.90;;;;;;5049032;28;20072;-42
2023/08/28 09:01:33;;;;;;;2.72;0.98;;;20.80;99.90;;;;;;5052797;28;20040;-42
2023/08/28 09:04:02;;;;;;;2.75;1.20;;;21.00;99.90;;;;;;5046525;28;20059;-42
2023/08/28 09:06:32;;;;;;;3.90;1.25;;;21.20;99.90;;;;;;5049671;28;20121;-42
2023/08/28 09:08:58;;;;;;;2.28;1.23;;;21.20;99.90;;;;;;5056245;28;20047;-43
2023/08/28 09:11:24;;;;;;;6.15;1.23;;;21.50;99.90;;;;;;5035331;28;20213;-43
2023/08/28 09:13:51;;;;;;;2.97;1.20;;;21.50;99.90;;;;;;5055779;28;20509;-43
2023/08/28 09:16:23;;;;;;;3.47;1.00;;;21.30;99.90;;;;;;5054812;28;20123;-43
2023/08/28 09:18:52;;;;;;;2.88;0.95;;;21.50;99.90;;;;;;5054868;28;20143;-42
2023/08/28 09:21:18;;;;;;;1.98;1.00;;;21.40;99.90;;;;;;5056476;28;20097;-42
2023/08/28 09:23:45;;;;;;;2.10;1.15;;;21.70;99.90;;;;;;5053472;28;20057;-42
2023/08/28 09:26:22;;;;;;;2.95;1.10;;;22.00;99.90;;;;;;5050560;28;20103;-42
2023/08/28 09:29:08;;;;;;;3.63;1.13;;;22.30;99.90;;;;;;5053182;28;20064;-42
2023/08/28 09:31:39;;;;;;;2.63;0.80;;;22.80;99.90;;;;;;5054542;28;20147;-41
2023/08/28 09:34:06;;;;;;;3.05;1.00;;;23.00;99.90;;;;;;5053359;28;20151;-42
2023/08/28 09:36:40;;;;;;;2.22;1.10;;;23.20;99.90;;;;;;5056242;28;20040;-42
2023/08/28 09:39:06;;;;;;;5.45;1.15;;;23.10;99.70;;;;;;5046787;28;20052;-43
2023/08/28 09:41:43;;;;;;;4.00;1.23;;;22.90;99.80;;;;;;5065564;28;20079;-42
2023/08/28 09:44:10;;;;;;;3.25;1.00;;;22.50;99.90;;;;;;5048700;28;20590;-42
2023/08/28 09:46:37;;;;;;;2.65;0.90;;;22.10;99.90;;;;;;5046666;28;20052;-42
2023/08/28 09:49:05;;;;;;;2.92;1.10;;;21.80;99.90;;;;;;5049409;28;20040;-43
2023/08/28 09:51:45;;;;;;;2.78;1.05;;;21.40;99.90;;;;;;5052074;28;20044;-42
2023/08/28 09:54:12;;;;;;;2.20;0.85;;;21.20;99.90;;;;;;5045971;28;20076;-42
2023/08/28 09:56:39;;;;;;;1.73;1.20;;;20.90;99.90;;;;;;5050559;28;20144;-43
2023/08/28 09:59:09;;;;;;;1.60;0.93;;;21.00;99.90;;;;;;5050499;28;20420;-43
2023/08/28 10:01:35;;;;;;;4.28;1.20;;;21.20;99.90;;;;;;5051252;28;20048;-43
2023/08/28 10:04:07;;;;;;;6.43;1.73;;;21.20;99.90;;;;;;5055053;28;20065;-42
2023/08/28 10:06:55;;;;;;;4.50;1.70;;;21.20;99.90;;;;;;5053529;28;20466;-42
2023/08/28 10:09:24;;;;;;;8.20;1.50;;;21.00;99.90;;;;;;5027989;28;20380;-43
2023/08/28 10:11:50;;;;;;;7.53;1.58;;;20.70;99.90;;;;;;5049625;28;20624;-42
2023/08/28 10:14:17;;;;;;;3.05;1.63;;;20.40;99.90;;;;;;5052402;28;20053;-42
2023/08/28 10:17:00;;;;;;;2.97;1.30;;;20.20;99.90;;;;;;5056776;28;20076;-42
2023/08/28 10:19:57;;;;;;;4.07;1.95;;;20.00;99.90;;;;;;5043649;28;20486;-43
2023/08/28 10:22:24;;;;;;;4.03;1.50;;;19.60;99.90;;;;;;5077774;27;20474;-42
2023/08/28 10:24:56;;;;;;;2.95;1.75;;;19.30;99.90;;;;;;5053677;28;20106;-41
2023/08/28 10:27:22;;;;;;;3.13;1.42;;;19.20;99.90;;;;;;5045452;28;20363;-42
2023/08/28 10:29:48;;;;;;;4.32;1.77;;;19.10;99.90;;;;;;5084527;27;20044;-42
2023/08/28 10:32:14;;;;;;;4.97;1.50;;;19.00;99.90;;;;;;5052754;28;20040;-42
2023/08/28 10:34:42;;;;;;;3.28;1.55;;;19.00;99.90;;;;;;5058360;28;20206;-42
2023/08/28 10:37:12;;;;;;;2.33;1.23;;;19.00;99.90;;;;;;5054181;28;20052;-42
2023/08/28 10:39:40;;;;;;;3.25;1.42;;;18.90;99.90;;;;;;5054434;28;20638;-43
2023/08/28 10:42:08;;;;;;;2.40;1.50;;;19.00;99.90;;;;;;5054957;28;20048;-41
2023/08/28 10:44:35;;;;;;;3.38;1.20;;;19.00;99.90;;;;;;5055072;28;20146;-42
2023/08/28 10:47:01;;;;;;;4.40;1.48;;;18.90;99.90;;;;;;5046911;28;20052;-42
2023/08/28 10:49:27;;;;;;;2.67;1.10;;;19.20;99.90;;;;;;5047968;28;20041;-44
2023/08/28 10:52:05;;;;;;;5.18;1.40;;;19.50;99.90;;;;;;5046268;28;20161;-42
2023/08/28 10:54:39;;;;;;;3.30;1.40;;;19.90;99.90;;;;;;5055563;28;20059;-42
2023/08/28 10:57:10;;;;;;;3.80;1.50;;;20.20;99.90;;;;;;5051084;28;20105;-42
2023/08/28 10:59:45;;;;;;;2.47;1.08;;;20.40;99.90;;;;;;5054497;28;20079;-44
2023/08/28 11:02:11;;;;;;;2.60;1.15;;;20.60;99.90;;;;;;5048071;28;20055;-43
2023/08/28 11:04:39;;;;;;;3.25;1.50;;;20.80;99.90;;;;;;5051486;28;20488;-43
2023/08/28 11:07:25;;;;;;;3.38;1.65;;;21.00;99.90;;;;;;5053185;28;20162;-42
2023/08/28 11:10:11;;;;;;;2.55;1.45;;;21.20;99.90;;;;;;5052617;28;20163;-43
2023/08/28 11:12:50;;;;;;;5.43;1.73;;;21.40;99.90;;;;;;5060391;28;20426;-43
2023/08/28 11:15:25;;;;;;;3.15;1.70;;;21.70;99.90;;;;;;5050629;28;20237;-42
2023/08/28 11:18:19;;;;;;;2.22;1.25;;;22.00;99.90;;;;;;5045345;28;20044;-43
2023/08/28 11:20:55;;;;;;;2.88;1.65;;;22.20;99.90;;;;;;5048156;28;20048;-43
2023/08/28 11:23:33;;;;;;;3.13;1.27;;;22.40;99.90;;;;;;5053320;28;20352;-43
2023/08/28 11:26:03;;;;;;;2.83;1.00;;;22.50;99.90;;;;;;5053897;28;20044;-42
2023/08/28 11:28:32;;;;;;;3.53;1.15;;;22.60;99.90;;;;;;5054430;28;20079;-43
2023/08/28 11:31:04;;;;;;;3.40;1.20;;;22.60;99.90;;;;;;5052921;28;20041;-42
2023/08/28 11:33:38;;;;;;;2.38;1.10;;;22.70;99.90;;;;;;5053750;28;20047;-42
2023/08/28 11:36:04;;;;;;;2.47;1.23;;;23.00;99.90;;;;;;5054385;28;20044;-45
2023/08/28 11:38:29;;;;;;;2.22;1.10;;;23.00;99.90;;;;;;5052906;28;20063;-42
2023/08/28 11:40:59;;;;;;;3.20;1.38;;;22.80;99.90;;;;;;5054981;28;20472;-43
2023/08/28 11:43:25;;;;;;;2.47;1.25;;;22.70;99.90;;;;;;5051779;28;20044;-42
2023/08/28 11:45:58;;;;;;;3.55;1.42;;;22.40;99.90;;;;;;5050653;28;20098;-42
2023/08/28 11:48:24;;;;;;;4.75;1.50;;;22.20;99.90;;;;;;5052412;28;20223;-42
2023/08/28 11:50:58;;;;;;;2.47;1.00;;;22.00;99.90;;;;;;5053719;28;20815;-43
2023/08/28 11:53:42;;;;;;;4.05;1.40;;;21.90;99.90;;;;;;5050970;28;20085;-43
2023/08/28 11:56:10;;;;;;;2.13;1.00;;;21.90;99.90;;;;;;5053742;28;20036;-42
2023/08/28 11:58:39;;;;;;;1.85;0.90;;;21.80;99.90;;;;;;5050902;28;20395;-43
2023/08/28 12:01:12;;;;;;;3.88;1.50;;;21.70;99.90;;;;;;5054355;28;20440;-44
2023/08/28 12:03:39;;;;;;;1.98;1.08;;;21.70;99.90;;;;;;5052274;28;20128;-43
2023/08/28 12:06:07;;;;;;;3.92;1.38;;;21.70;99.90;;;;;;5053690;28;20578;-43
2023/08/28 12:08:41;;;;;;;3.13;1.20;;;21.90;99.90;;;;;;5053346;28;20036;-43
2023/08/28 12:11:12;;;;;;;3.75;1.38;;;22.20;99.90;;;;;;5051161;28;20040;-42
2023/08/28 12:13:38;;;;;;;3.47;1.20;;;22.10;99.90;;;;;;5053316;28;20386;-44
2023/08/28 12:16:17;;;;;;;3.63;1.30;;;21.90;99.90;;;;;;5050960;28;20090;-43
2023/08/28 12:18:51;;;;;;;2.28;1.13;;;21.70;99.90;;;;;;5053002;28;20123;-44
2023/08/28 12:21:19;;;;;;;2.65;1.23;;;21.70;99.90;;;;;;5052467;28;20544;-42
2023/08/28 12:23:49;;;;;;;3.78;1.25;;;21.60;99.90;;;;;;5051421;28;20132;-43
2023/08/28 12:26:20;;;;;;;4.15;1.27;;;21.50;99.90;;;;;;5050549;28;20052;-42
2023/08/28 12:28:47;;;;;;;2.13;1.02;;;21.40;99.90;;;;;;5052004;28;20040;-42
2023/08/28 12:31:13;;;;;;;2.50;1.30;;;21.30;99.90;;;;;;5051395;28;20075;-43
2023/08/28 12:33:45;;;;;;;3.17;1.27;;;21.10;99.90;;;;;;5054254;28;20520;-43
2023/08/28 12:36:12;;;;;;;2.72;1.55;;;21.10;99.90;;;;;;5053503;28;20056;-43
2023/08/28 12:38:48;;;;;;;2.83;1.42;;;21.20;99.90;;;;;;5051910;28;20041;-43
2023/08/28 12:41:15;;;;;;;2.53;1.10;;;21.40;99.90;;;;;;5052316;28;20098;-43
2023/08/28 12:43:41;;;;;;;2.03;1.27;;;21.60;99.90;;;;;;5054392;28;20119;-43
2023/08/28 12:46:06;;;;;;;4.18;1.40;;;21.80;99.90;;;;;;5054458;28;20077;-43
2023/08/28 12:48:32;;;;;;;2.53;1.25;;;21.90;99.90;;;;;;5055757;28;20127;-42
2023/08/28 12:50:58;;;;;;;4.32;1.52;;;22.00;99.90;;;;;;5052508;28;20048;-42
2023/08/28 12:53:24;;;;;;;3.20;1.10;;;22.10;99.90;;;;;;5052212;28;20167;-43